createdAt,value
2023-02-26T00:00:38.880Z,30.83
2023-02-26T00:03:06.128Z,30.97
2023-02-26T00:05:33.331Z,30.64
2023-02-26T00:08:00.731Z,31.23
2023-02-26T00:10:27.902Z,30.40
2023-02-26T00:12:55.389Z,30.91
2023-02-26T00:15:23.329Z,30.99
2023-02-26T00:18:09.522Z,30.51
2023-02-26T00:20:38.070Z,30.60
2023-02-26T00:23:05.951Z,31.16
2023-02-26T00:25:33.102Z,31.35
2023-02-26T00:28:00.647Z,31.01
2023-02-26T00:30:28.186Z,30.73
2023-02-26T00:32:55.830Z,30.50
2023-02-26T00:35:23.677Z,30.74
2023-02-26T00:37:59.553Z,30.93
2023-02-26T00:40:50.723Z,29.75
2023-02-26T00:43:25.352Z,30.79
2023-02-26T00:46:16.633Z,31.11
2023-02-26T00:49:18.188Z,30.96
2023-02-26T00:51:55.446Z,30.83
2023-02-26T00:54:30.133Z,30.38
2023-02-26T00:56:59.332Z,30.33
2023-02-26T00:59:26.713Z,30.39
2023-02-26T01:01:54.161Z,30.59
2023-02-26T01:04:24.944Z,30.43
2023-02-26T01:06:56.533Z,30.21
2023-02-26T01:13:23.969Z,29.87
2023-02-26T01:16:05.304Z,30.10
2023-02-26T01:18:44.499Z,30.44
2023-02-26T01:21:23.450Z,30.26
2023-02-26T01:23:52.430Z,30.66
2023-02-26T01:26:28.837Z,30.32
2023-02-26T01:28:56.894Z,29.63
2023-02-26T01:31:54.667Z,29.74
2023-02-26T01:35:02.088Z,29.81
2023-02-26T01:37:53.385Z,29.55
2023-02-26T01:44:39.907Z,29.49
2023-02-26T01:47:21.853Z,29.52
2023-02-26T01:49:49.907Z,29.48
2023-02-26T01:52:35.536Z,29.48
2023-02-26T01:55:05.413Z,29.54
2023-02-26T02:01:40.198Z,29.82
2023-02-26T02:04:15.078Z,29.53
2023-02-26T02:06:43.481Z,29.32
2023-02-26T02:09:37.622Z,29.63
2023-02-26T02:12:27.840Z,29.40
2023-02-26T02:23:15.348Z,29.77
2023-02-26T02:26:19.872Z,29.67
2023-02-26T02:28:49.964Z,29.90
2023-02-26T02:31:36.701Z,29.68
2023-02-26T02:34:23.355Z,29.14
2023-02-26T02:41:10.376Z,29.32
2023-02-26T02:43:42.440Z,29.53
2023-02-26T02:46:21.146Z,29.00
2023-02-26T02:49:02.973Z,29.44
2023-02-26T02:51:39.692Z,29.45
2023-02-26T02:54:42.330Z,29.41
2023-02-26T02:57:31.965Z,29.13
2023-02-26T03:00:07.037Z,30.04
2023-02-26T03:03:07.282Z,29.87
2023-02-26T03:05:34.885Z,29.65
2023-02-26T03:08:17.471Z,29.96
2023-02-26T03:10:45.180Z,29.55
2023-02-26T03:13:18.471Z,29.13
2023-02-26T03:16:13.902Z,29.29
2023-02-26T03:19:02.073Z,29.15
2023-02-26T03:21:56.270Z,29.46
2023-02-26T03:29:03.099Z,29.93
2023-02-26T03:31:40.279Z,30.03
2023-02-26T03:34:49.918Z,31.90
2023-02-26T03:37:41.921Z,33.01
2023-02-26T03:40:22.216Z,32.87
2023-02-26T03:43:36.611Z,33.12
2023-02-26T03:46:11.015Z,32.42
2023-02-26T03:48:38.385Z,31.88
2023-02-26T03:51:13.616Z,32.47
2023-02-26T03:54:10.092Z,33.40
2023-02-26T03:56:47.830Z,35.11
2023-02-26T03:59:17.582Z,36.36
2023-02-26T04:02:08.345Z,37.05
2023-02-26T04:04:39.525Z,34.92
2023-02-26T04:07:07.036Z,35.01
2023-02-26T04:09:34.246Z,32.49
2023-02-26T04:12:01.808Z,32.24
2023-02-26T04:14:29.063Z,35.25
2023-02-26T04:16:56.448Z,37.79
2023-02-26T04:19:23.626Z,39.30
2023-02-26T04:21:51.122Z,39.76
2023-02-26T04:24:18.319Z,40.26
2023-02-26T04:26:45.562Z,40.13
2023-02-26T04:29:12.787Z,40.47
2023-02-26T04:31:40.064Z,40.83
2023-02-26T04:34:07.310Z,41.02
2023-02-26T04:36:34.546Z,41.07
2023-02-26T04:39:01.702Z,41.25
2023-02-26T04:41:28.879Z,41.45
2023-02-26T04:43:56.071Z,41.57
2023-02-26T04:46:23.404Z,41.53
2023-02-26T04:48:50.780Z,41.33
2023-02-26T04:51:17.939Z,41.36
2023-02-26T04:53:45.160Z,41.59
2023-02-26T04:56:13.294Z,41.22
2023-02-26T04:58:40.686Z,38.95
2023-02-26T05:01:07.977Z,37.81
2023-02-26T05:03:35.255Z,36.00
2023-02-26T05:06:02.484Z,35.93
2023-02-26T05:08:29.699Z,33.85
2023-02-26T05:10:57.066Z,32.84
2023-02-26T05:13:24.210Z,32.58
2023-02-26T05:15:54.259Z,32.20
2023-02-26T05:18:21.637Z,32.19
2023-02-26T05:20:56.236Z,32.33
2023-02-26T05:23:23.740Z,31.65
2023-02-26T05:25:50.997Z,32.35
2023-02-26T05:28:18.316Z,32.70
2023-02-26T05:34:51.373Z,32.16
2023-02-26T05:37:18.588Z,32.10
2023-02-26T05:39:45.713Z,31.72
2023-02-26T05:46:19.287Z,32.01
2023-02-26T05:48:46.484Z,31.58
2023-02-26T05:51:13.667Z,31.92
2023-02-26T05:53:40.927Z,31.21
2023-02-26T05:56:08.318Z,31.57
2023-02-26T05:58:35.683Z,31.11
2023-02-26T06:01:03.021Z,30.83
2023-02-26T06:03:30.770Z,30.95
2023-02-26T06:05:58.086Z,31.00
2023-02-26T06:08:25.391Z,30.59
2023-02-26T06:10:52.583Z,30.47
2023-02-26T06:13:20.034Z,31.30
2023-02-26T06:15:50.740Z,31.45
2023-02-26T06:26:34.121Z,31.42
2023-02-26T06:29:01.670Z,31.27
2023-02-26T06:31:29.038Z,31.05
2023-02-26T06:33:56.400Z,31.01
2023-02-26T06:36:23.728Z,31.01
2023-02-26T06:38:51.140Z,31.21
2023-02-26T06:41:18.317Z,31.23
2023-02-26T06:43:45.523Z,30.39
2023-02-26T06:46:19.353Z,30.25
2023-02-26T06:48:56.703Z,30.25
2023-02-26T06:51:23.895Z,30.53
2023-02-26T06:57:57.843Z,31.00
2023-02-26T07:00:26.673Z,29.57
2023-02-26T07:02:54.188Z,29.24
2023-02-26T07:09:31.280Z,30.03
2023-02-26T07:11:58.459Z,28.79
2023-02-26T07:18:25.432Z,29.64
2023-02-26T07:20:52.706Z,28.90
2023-02-26T07:23:19.953Z,28.69
2023-02-26T07:25:50.164Z,28.77
2023-02-26T07:28:21.594Z,28.21
2023-02-26T07:30:49.333Z,29.01
2023-02-26T07:33:16.700Z,29.21
2023-02-26T07:35:43.980Z,27.43
2023-02-26T07:38:11.170Z,28.14
2023-02-26T07:40:38.888Z,29.37
2023-02-26T07:43:06.363Z,28.79
2023-02-26T07:45:33.696Z,27.95
2023-02-26T07:48:00.893Z,27.63
2023-02-26T07:50:28.106Z,28.23
2023-02-26T07:52:55.290Z,28.39
2023-02-26T07:55:22.540Z,27.99
2023-02-26T07:57:49.897Z,28.12
2023-02-26T08:00:17.994Z,28.24
2023-02-26T08:02:45.238Z,27.52
2023-02-26T08:05:12.400Z,28.01
2023-02-26T08:07:39.579Z,26.97
2023-02-26T08:10:07.318Z,27.63
2023-02-26T08:12:35.083Z,27.54
2023-02-26T08:15:02.575Z,27.32
2023-02-26T08:17:30.444Z,26.95
2023-02-26T08:19:57.640Z,27.14
2023-02-26T08:22:25.006Z,27.44
2023-02-26T08:25:00.645Z,27.05
2023-02-26T08:27:28.261Z,26.73
2023-02-26T08:29:55.485Z,26.71
2023-02-26T08:36:28.567Z,26.66
2023-02-26T08:38:55.888Z,26.51
2023-02-26T08:41:23.743Z,25.92
2023-02-26T08:43:50.979Z,25.54
2023-02-26T08:46:18.311Z,26.07
2023-02-26T08:48:45.476Z,26.83
2023-02-26T08:51:12.656Z,26.15
2023-02-26T08:53:39.888Z,26.83
2023-02-26T08:56:07.337Z,25.99
2023-02-26T08:58:34.525Z,25.24
2023-02-26T09:01:01.727Z,24.35
2023-02-26T09:03:28.913Z,25.23
2023-02-26T09:05:56.149Z,25.17
2023-02-26T09:08:23.573Z,25.39
2023-02-26T09:10:51.203Z,25.97
2023-02-26T09:13:18.626Z,25.74
2023-02-26T09:16:03.668Z,26.90
2023-02-26T09:18:30.864Z,27.09
2023-02-26T09:20:59.577Z,27.66
2023-02-26T09:23:26.958Z,28.24
2023-02-26T09:30:00.153Z,27.08
2023-02-26T09:32:27.557Z,27.02
2023-02-26T09:34:54.804Z,27.17
2023-02-26T09:37:22.162Z,27.41
2023-02-26T09:39:49.398Z,27.47
2023-02-26T09:42:20.315Z,26.84
2023-02-26T09:44:48.957Z,26.65
2023-02-26T09:47:28.788Z,26.79
2023-02-26T09:50:11.466Z,27.57
2023-02-26T09:52:49.710Z,27.92
2023-02-26T09:55:35.448Z,28.80
2023-02-26T09:58:36.525Z,27.20
2023-02-26T10:01:45.818Z,27.76
2023-02-26T10:04:40.551Z,27.62
2023-02-26T10:11:48.447Z,26.64
2023-02-26T10:14:42.060Z,26.38
2023-02-26T10:21:26.241Z,26.97
2023-02-26T10:24:01.623Z,27.46
2023-02-26T10:27:00.522Z,26.92
2023-02-26T10:29:45.809Z,27.68
2023-02-26T10:36:46.644Z,26.63
2023-02-26T10:39:42.269Z,25.17
2023-02-26T10:42:26.016Z,24.66
2023-02-26T10:45:13.332Z,24.98
2023-02-26T10:48:01.878Z,24.79
2023-02-26T10:50:31.251Z,24.27
2023-02-26T10:52:59.522Z,24.52
2023-02-26T10:55:41.285Z,25.61
2023-02-26T10:58:12.984Z,25.35
2023-02-26T11:00:44.368Z,25.43
2023-02-26T11:03:30.864Z,25.14
2023-02-26T11:05:58.836Z,26.22
2023-02-26T11:08:35.221Z,25.79
2023-02-26T11:11:05.496Z,24.59
2023-02-26T11:13:37.853Z,26.03
2023-02-26T11:16:18.069Z,24.08
2023-02-26T11:18:53.853Z,24.01
2023-02-26T11:21:29.737Z,24.32
2023-02-26T11:24:17.017Z,25.50
2023-02-26T11:26:51.045Z,25.46
2023-02-26T11:29:22.383Z,25.20
2023-02-26T11:32:00.010Z,24.32
2023-02-26T11:34:27.311Z,24.43
2023-02-26T11:37:00.174Z,23.46
2023-02-26T11:43:49.600Z,21.12
2023-02-26T11:46:17.072Z,21.54
2023-02-26T11:48:48.115Z,21.64
2023-02-26T11:51:25.266Z,21.72
2023-02-26T11:53:59.257Z,21.15
2023-02-26T11:56:42.449Z,21.24
2023-02-26T11:59:23.140Z,22.10
2023-02-26T12:01:53.415Z,22.18
2023-02-26T12:04:25.293Z,22.11
2023-02-26T12:06:56.530Z,23.16
2023-02-26T12:09:26.469Z,21.77
2023-02-26T12:12:06.003Z,22.60
2023-02-26T12:15:03.101Z,21.69
2023-02-26T12:18:04.903Z,23.27
2023-02-26T12:21:12.545Z,22.46
2023-02-26T12:24:20.173Z,23.49
2023-02-26T12:31:50.398Z,24.07
2023-02-26T12:35:16.173Z,24.61
2023-02-26T12:38:37.127Z,24.21
2023-02-26T12:41:25.153Z,24.80
2023-02-26T12:44:01.590Z,25.30
2023-02-26T12:47:04.170Z,24.52
2023-02-26T12:49:58.716Z,24.60
2023-02-26T12:52:44.259Z,25.16
2023-02-26T12:55:24.211Z,26.12
2023-02-26T12:58:06.303Z,25.31
2023-02-26T13:00:58.980Z,25.01
2023-02-26T13:03:38.157Z,25.07
2023-02-26T13:06:30.383Z,25.76
2023-02-26T13:09:21.909Z,24.82
2023-02-26T13:16:12.069Z,24.81
2023-02-26T13:22:51.859Z,25.16
2023-02-26T13:25:41.486Z,25.11
2023-02-26T13:28:38.887Z,25.49
2023-02-26T13:31:27.252Z,24.97
2023-02-26T13:33:59.830Z,25.23
2023-02-26T13:36:29.649Z,25.90
2023-02-26T13:39:25.966Z,26.20
2023-02-26T13:42:09.512Z,26.35
2023-02-26T13:45:13.396Z,26.25
2023-02-26T13:48:16.898Z,26.59
2023-02-26T13:51:01.237Z,26.50
2023-02-26T13:53:39.180Z,25.78
2023-02-26T13:56:31.406Z,25.96
2023-02-26T13:59:16.898Z,26.19
2023-02-26T14:02:01.666Z,26.29
2023-02-26T14:04:49.548Z,27.38
2023-02-26T14:07:17.254Z,26.91
2023-02-26T14:09:47.828Z,27.13
2023-02-26T14:12:42.460Z,27.01
2023-02-26T14:15:12.694Z,27.17
2023-02-26T14:17:41.266Z,26.79
2023-02-26T14:20:22.958Z,27.25
2023-02-26T14:23:29.574Z,27.32
2023-02-26T14:26:06.664Z,27.01
2023-02-26T14:29:10.239Z,29.12
2023-02-26T14:35:51.110Z,27.86
2023-02-26T14:38:34.938Z,28.75
2023-02-26T14:41:30.002Z,29.67
2023-02-26T14:44:02.999Z,28.74
2023-02-26T14:46:31.084Z,29.64
2023-02-26T14:48:58.726Z,29.33
2023-02-26T14:52:00.989Z,28.76
2023-02-26T14:55:03.132Z,28.99
2023-02-26T14:57:48.296Z,29.84
2023-02-26T15:00:53.957Z,29.89
2023-02-26T15:03:45.364Z,29.17
2023-02-26T15:06:44.616Z,29.11
2023-02-26T15:09:27.614Z,29.15
2023-02-26T15:12:14.437Z,29.96
2023-02-26T15:15:13.181Z,29.80
2023-02-26T15:17:51.987Z,29.77
2023-02-26T15:20:48.924Z,29.23
2023-02-26T15:23:47.460Z,29.29
2023-02-26T15:26:31.108Z,29.00
2023-02-26T15:29:02.396Z,29.03
2023-02-26T15:31:57.281Z,29.00
2023-02-26T15:34:25.052Z,28.86
2023-02-26T15:36:53.653Z,28.64
2023-02-26T15:39:25.185Z,28.56
2023-02-26T15:41:55.903Z,27.83
2023-02-26T15:44:30.578Z,28.72
2023-02-26T15:47:04.937Z,28.91
2023-02-26T15:49:42.051Z,28.18
2023-02-26T15:52:19.473Z,28.88
2023-02-26T15:54:56.806Z,28.66
2023-02-26T15:57:26.434Z,29.04
2023-02-26T16:04:05.777Z,30.00
2023-02-26T16:06:38.081Z,29.11
2023-02-26T16:09:50.835Z,28.98
2023-02-26T16:13:02.074Z,30.35
2023-02-26T16:15:36.940Z,30.13
2023-02-26T16:21:55.543Z,31.04
2023-02-26T16:25:25.014Z,30.42
2023-02-26T16:28:14.796Z,30.79
2023-02-26T16:34:55.787Z,31.21
2023-02-26T16:37:35.884Z,31.83
2023-02-26T16:40:21.213Z,31.72
2023-02-26T16:43:02.333Z,31.86
2023-02-26T16:45:35.563Z,31.14
2023-02-26T16:52:19.103Z,32.97
2023-02-26T16:55:00.864Z,33.74
2023-02-26T16:58:06.412Z,33.53
2023-02-26T17:00:35.887Z,33.41
2023-02-26T17:03:30.549Z,33.83
2023-02-26T17:06:00.713Z,33.57
2023-02-26T17:08:42.331Z,34.18
2023-02-26T17:11:28.088Z,34.53
2023-02-26T17:14:20.758Z,34.36
2023-02-26T17:16:50.174Z,34.86
2023-02-26T17:19:19.198Z,35.80
2023-02-26T17:21:55.295Z,36.35
2023-02-26T17:24:38.129Z,36.89
2023-02-26T17:27:06.011Z,36.60
2023-02-26T17:29:44.845Z,37.33
2023-02-26T17:32:25.382Z,38.01
2023-02-26T17:34:58.818Z,38.56
2023-02-26T17:37:33.652Z,39.71
2023-02-26T17:40:00.969Z,39.90
2023-02-26T17:42:28.631Z,40.31
2023-02-26T17:44:56.536Z,40.93
2023-02-26T17:47:26.790Z,40.87
2023-02-26T17:49:54.416Z,41.28
2023-02-26T17:52:22.049Z,41.89
2023-02-26T17:54:49.481Z,41.56
2023-02-26T17:57:22.040Z,42.31
2023-02-26T17:59:50.601Z,42.59
2023-02-26T18:02:24.696Z,43.09
2023-02-26T18:04:52.136Z,43.84
2023-02-26T18:07:21.671Z,43.97
2023-02-26T18:09:49.357Z,43.72
2023-02-26T18:12:21.390Z,44.22
2023-02-26T18:14:50.342Z,44.48
2023-02-26T18:17:29.388Z,45.00
2023-02-26T18:19:57.559Z,45.22
2023-02-26T18:22:25.668Z,45.60
2023-02-26T18:24:56.547Z,45.32
2023-02-26T18:27:26.139Z,45.41
2023-02-26T18:29:54.258Z,45.65
2023-02-26T18:32:24.812Z,45.88
2023-02-26T18:34:53.086Z,46.42
2023-02-26T18:37:27.408Z,46.63
2023-02-26T18:39:55.103Z,46.57
2023-02-26T18:42:25.822Z,46.85
2023-02-26T18:44:54.829Z,46.87
2023-02-26T18:47:23.137Z,47.43
2023-02-26T18:49:52.012Z,47.22
2023-02-26T18:52:19.564Z,47.11
2023-02-26T18:54:46.854Z,47.39
2023-02-26T18:57:14.873Z,48.29
2023-02-26T18:59:42.063Z,48.04
2023-02-26T19:02:13.050Z,47.79
2023-02-26T19:04:41.531Z,48.28
2023-02-26T19:07:09.388Z,48.42
2023-02-26T19:09:36.600Z,48.65
2023-02-26T19:12:04.516Z,48.74
2023-02-26T19:14:32.526Z,49.02
2023-02-26T19:17:00.096Z,49.13
2023-02-26T19:19:27.861Z,48.76
2023-02-26T19:21:55.209Z,48.83
2023-02-26T19:24:22.506Z,48.89
2023-02-26T19:26:50.430Z,48.46
2023-02-26T19:29:20.002Z,48.69
2023-02-26T19:31:47.685Z,49.19
2023-02-26T19:34:15.439Z,49.26
2023-02-26T19:36:43.325Z,49.25
2023-02-26T19:39:10.882Z,49.41
2023-02-26T19:41:38.145Z,49.65
2023-02-26T19:44:06.038Z,49.90
2023-02-26T19:46:33.622Z,49.91
2023-02-26T19:49:00.932Z,49.89
2023-02-26T19:51:28.595Z,49.93
2023-02-26T19:53:56.155Z,50.13
2023-02-26T19:56:23.308Z,50.09
2023-02-26T19:58:50.719Z,50.27
2023-02-26T20:01:18.533Z,50.40
2023-02-26T20:03:48.021Z,50.57
2023-02-26T20:06:16.228Z,50.57
2023-02-26T20:08:43.514Z,50.47
2023-02-26T20:11:10.733Z,50.59
2023-02-26T20:13:38.552Z,50.66
2023-02-26T20:16:09.551Z,50.48
2023-02-26T20:18:37.394Z,50.45
2023-02-26T20:21:10.078Z,50.76
2023-02-26T20:23:39.450Z,50.33
2023-02-26T20:26:12.171Z,50.79
2023-02-26T20:28:40.643Z,50.50
2023-02-26T20:31:08.450Z,50.55
2023-02-26T20:33:36.795Z,50.34
2023-02-26T20:36:04.488Z,50.65
2023-02-26T20:38:31.845Z,50.47
2023-02-26T20:40:59.284Z,50.40
2023-02-26T20:43:26.656Z,49.99
2023-02-26T20:45:53.971Z,49.98
2023-02-26T20:48:22.604Z,50.05
2023-02-26T20:50:49.900Z,49.86
2023-02-26T20:53:17.153Z,50.41
2023-02-26T20:55:44.377Z,50.33
2023-02-26T20:58:11.588Z,50.12
2023-02-26T21:00:38.973Z,50.89
2023-02-26T21:03:06.320Z,50.96
2023-02-26T21:05:34.215Z,50.69
2023-02-26T21:08:03.431Z,50.96
2023-02-26T21:10:31.495Z,51.31
2023-02-26T21:12:58.741Z,50.95
2023-02-26T21:15:26.281Z,50.84
2023-02-26T21:17:53.746Z,51.09
2023-02-26T21:20:21.139Z,50.94
2023-02-26T21:22:49.383Z,50.36
2023-02-26T21:25:17.290Z,50.41
2023-02-26T21:27:47.372Z,50.48
2023-02-26T21:30:16.415Z,50.40
2023-02-26T21:32:44.147Z,50.44
2023-02-26T21:35:12.125Z,50.91
2023-02-26T21:37:39.412Z,50.63
2023-02-26T21:40:07.637Z,50.87
2023-02-26T21:42:35.252Z,50.76
2023-02-26T21:45:02.670Z,50.63
2023-02-26T21:47:30.172Z,50.90
2023-02-26T21:49:57.629Z,50.79
2023-02-26T21:52:24.901Z,50.69
2023-02-26T21:54:52.229Z,50.59
2023-02-26T21:57:19.465Z,50.68
2023-02-26T21:59:46.940Z,50.78
2023-02-26T22:02:14.495Z,50.74
2023-02-26T22:04:41.848Z,50.79
2023-02-26T22:07:09.281Z,50.70
2023-02-26T22:09:37.041Z,50.62
2023-02-26T22:12:04.718Z,50.88
2023-02-26T22:14:31.906Z,51.34
2023-02-26T22:16:59.400Z,50.91
2023-02-26T22:19:29.139Z,50.96
2023-02-26T22:21:56.349Z,50.65
2023-02-26T22:24:28.090Z,50.56
2023-02-26T22:26:55.352Z,50.92
2023-02-26T22:29:23.483Z,50.73
2023-02-26T22:31:50.728Z,50.25
2023-02-26T22:34:20.618Z,50.67
2023-02-26T22:36:48.131Z,50.55
2023-02-26T22:39:15.767Z,51.06
2023-02-26T22:41:43.090Z,50.82
2023-02-26T22:44:10.402Z,50.48
2023-02-26T22:46:38.530Z,50.45
2023-02-26T22:49:06.363Z,49.98
2023-02-26T22:51:33.526Z,50.55
2023-02-26T22:54:01.783Z,50.68
2023-02-26T22:56:29.282Z,50.63
2023-02-26T22:58:56.604Z,50.23
2023-02-26T23:01:23.856Z,49.73
2023-02-26T23:03:51.777Z,50.06
2023-02-26T23:06:18.965Z,50.23
2023-02-26T23:08:46.139Z,49.72
2023-02-26T23:11:13.444Z,50.06
2023-02-26T23:13:40.958Z,50.12
2023-02-26T23:16:11.285Z,50.48
2023-02-26T23:18:38.868Z,50.65
2023-02-26T23:21:07.426Z,50.35
2023-02-26T23:23:34.678Z,50.14
2023-02-26T23:26:02.456Z,50.01
2023-02-26T23:28:30.142Z,49.89
2023-02-26T23:30:57.439Z,50.15
2023-02-26T23:33:24.872Z,50.19
2023-02-26T23:35:52.301Z,50.22
2023-02-26T23:38:19.649Z,50.06
2023-02-26T23:40:46.885Z,50.09
2023-02-26T23:43:14.202Z,50.31
2023-02-26T23:45:41.530Z,50.03
2023-02-26T23:48:08.991Z,50.35
2023-02-26T23:50:36.303Z,50.30
2023-02-26T23:53:03.520Z,50.36
2023-02-26T23:55:30.813Z,50.47
2023-02-26T23:57:58.315Z,50.30
